createdAt,value
2023-02-03T00:00:01.862Z,75.77
2023-02-03T00:02:39.346Z,75.90
2023-02-03T00:05:07.878Z,75.79
2023-02-03T00:07:36.797Z,76.79
2023-02-03T00:10:05.475Z,76.30
2023-02-03T00:12:34.412Z,76.66
2023-02-03T00:15:01.917Z,77.00
2023-02-03T00:17:29.441Z,76.10
2023-02-03T00:19:56.943Z,77.26
2023-02-03T00:22:24.397Z,76.62
2023-02-03T00:24:51.911Z,76.49
2023-02-03T00:27:19.365Z,77.96
2023-02-03T00:29:46.860Z,77.90
2023-02-03T00:32:14.514Z,78.29
2023-02-03T00:34:42.021Z,78.23
2023-02-03T00:37:09.561Z,78.34
2023-02-03T00:39:37.930Z,80.14
2023-02-03T00:42:06.791Z,79.81
2023-02-03T00:44:34.339Z,79.27
2023-02-03T00:47:01.905Z,79.03
2023-02-03T00:49:30.188Z,78.92
2023-02-03T00:51:57.710Z,78.13
2023-02-03T00:54:25.201Z,79.42
2023-02-03T00:56:54.010Z,80.24
2023-02-03T00:59:21.450Z,80.13
2023-02-03T01:01:50.003Z,81.08
2023-02-03T01:04:17.462Z,80.67
2023-02-03T01:06:46.097Z,80.03
2023-02-03T01:09:13.557Z,80.04
2023-02-03T01:11:41.408Z,80.87
2023-02-03T01:14:08.942Z,81.24
2023-02-03T01:16:38.322Z,81.28
2023-02-03T01:19:06.597Z,81.82
2023-02-03T01:21:36.257Z,81.70
2023-02-03T01:24:04.119Z,80.18
2023-02-03T01:26:31.874Z,80.33
2023-02-03T01:29:01.037Z,80.16
2023-02-03T01:31:40.929Z,79.55
2023-02-03T01:34:17.180Z,79.64
2023-02-03T01:36:46.869Z,79.22
2023-02-03T01:39:14.918Z,79.72
2023-02-03T01:41:42.833Z,77.13
2023-02-03T01:44:43.455Z,78.38
2023-02-03T01:47:19.506Z,77.37
2023-02-03T01:50:18.898Z,76.95
2023-02-03T01:52:52.999Z,76.37
2023-02-03T01:55:29.255Z,76.57
2023-02-03T01:58:06.289Z,77.47
2023-02-03T02:00:33.864Z,77.35
2023-02-03T02:03:06.895Z,76.76
2023-02-03T02:05:46.664Z,76.17
2023-02-03T02:08:18.182Z,76.61
2023-02-03T02:10:46.362Z,76.30
2023-02-03T02:13:15.156Z,77.25
2023-02-03T02:16:36.923Z,77.90
2023-02-03T02:19:45.717Z,79.30
2023-02-03T02:22:45.428Z,79.53
2023-02-03T02:25:46.235Z,80.22
2023-02-03T02:29:03.278Z,80.35
2023-02-03T02:31:56.685Z,78.89
2023-02-03T02:35:17.665Z,78.36
2023-02-03T02:38:03.949Z,78.58
2023-02-03T02:40:50.842Z,78.45
2023-02-03T02:43:30.166Z,79.06
2023-02-03T02:46:37.866Z,78.95
2023-02-03T02:49:14.409Z,78.92
2023-02-03T02:51:45.243Z,79.86
2023-02-03T02:54:22.122Z,79.69
2023-02-03T02:56:59.041Z,80.54
2023-02-03T02:59:28.612Z,80.60
2023-02-03T03:01:57.557Z,81.34
2023-02-03T03:04:28.661Z,81.69
2023-02-03T03:07:13.022Z,80.75
2023-02-03T03:09:57.600Z,81.52
2023-02-03T03:12:36.063Z,81.58
2023-02-03T03:15:16.480Z,81.92
2023-02-03T03:18:06.314Z,83.17
2023-02-03T03:20:37.550Z,83.45
2023-02-03T03:23:20.457Z,84.18
2023-02-03T03:25:54.490Z,84.31
2023-02-03T03:28:30.899Z,84.38
2023-02-03T03:30:58.423Z,84.55
2023-02-03T03:33:25.977Z,85.11
2023-02-03T03:36:27.768Z,84.93
2023-02-03T03:39:24.038Z,84.02
2023-02-03T03:42:31.997Z,84.58
2023-02-03T03:45:20.245Z,84.32
2023-02-03T03:48:01.287Z,86.12
2023-02-03T03:51:02.701Z,85.22
2023-02-03T03:53:33.309Z,85.09
2023-02-03T03:56:03.132Z,86.24
2023-02-03T03:58:33.140Z,86.72
2023-02-03T04:01:04.231Z,86.92
2023-02-03T04:03:42.404Z,85.79
2023-02-03T04:06:10.002Z,84.98
2023-02-03T04:08:40.515Z,85.06
2023-02-03T04:11:08.928Z,85.16
2023-02-03T04:13:37.493Z,86.16
2023-02-03T04:16:05.212Z,86.71
2023-02-03T04:18:32.668Z,87.21
2023-02-03T04:21:00.142Z,85.97
2023-02-03T04:23:27.592Z,85.40
2023-02-03T04:25:55.037Z,85.34
2023-02-03T04:28:22.612Z,85.97
2023-02-03T04:30:50.087Z,85.41
2023-02-03T04:33:17.602Z,85.69
2023-02-03T04:35:45.006Z,84.88
2023-02-03T04:38:12.569Z,84.36
2023-02-03T04:40:40.049Z,84.10
2023-02-03T04:43:08.915Z,84.04
2023-02-03T04:45:36.403Z,84.48
2023-02-03T04:48:23.890Z,83.21
2023-02-03T04:50:51.437Z,83.02
2023-02-03T04:53:18.866Z,82.28
2023-02-03T04:55:49.384Z,81.67
2023-02-03T04:58:16.908Z,82.42
2023-02-03T05:00:44.454Z,82.28
2023-02-03T05:03:14.660Z,82.24
2023-02-03T05:05:42.191Z,81.85
2023-02-03T05:08:09.637Z,81.73
2023-02-03T05:10:37.578Z,81.87
2023-02-03T05:13:05.055Z,81.21
2023-02-03T05:15:32.488Z,81.87
2023-02-03T05:18:00.015Z,80.79
2023-02-03T05:20:28.608Z,81.74
2023-02-03T05:22:56.227Z,81.64
2023-02-03T05:25:23.742Z,81.37
2023-02-03T05:27:51.209Z,80.24
2023-02-03T05:30:19.014Z,81.25
2023-02-03T05:32:46.662Z,80.85
2023-02-03T05:35:14.200Z,80.69
2023-02-03T05:37:43.738Z,81.32
2023-02-03T05:40:31.190Z,81.41
2023-02-03T05:42:58.813Z,81.16
2023-02-03T05:45:26.481Z,81.98
2023-02-03T05:47:54.732Z,81.42
2023-02-03T05:50:22.980Z,81.74
2023-02-03T05:52:51.248Z,81.77
2023-02-03T05:55:18.775Z,81.79
2023-02-03T05:57:46.229Z,81.04
2023-02-03T06:00:14.976Z,81.60
2023-02-03T06:02:42.410Z,82.30
2023-02-03T06:05:10.146Z,81.12
2023-02-03T06:07:37.736Z,79.97
2023-02-03T06:10:05.880Z,79.61
2023-02-03T06:12:33.371Z,80.63
2023-02-03T06:15:00.774Z,79.94
2023-02-03T06:17:28.230Z,81.40
2023-02-03T06:19:55.720Z,80.32
2023-02-03T06:22:23.272Z,80.49
2023-02-03T06:24:50.727Z,80.81
2023-02-03T06:27:18.180Z,81.17
2023-02-03T06:29:45.692Z,80.52
2023-02-03T06:32:13.231Z,79.26
2023-02-03T06:34:40.675Z,79.89
2023-02-03T06:37:08.078Z,79.38
2023-02-03T06:39:35.715Z,79.84
2023-02-03T06:42:03.851Z,80.05
2023-02-03T06:44:32.696Z,79.31
2023-02-03T06:47:00.206Z,79.10
2023-02-03T06:49:27.640Z,77.60
2023-02-03T06:51:55.188Z,78.33
2023-02-03T06:54:23.004Z,77.26
2023-02-03T06:56:50.485Z,77.33
2023-02-03T06:59:18.029Z,76.61
2023-02-03T07:01:45.506Z,74.89
2023-02-03T07:04:13.027Z,73.76
2023-02-03T07:06:40.474Z,74.28
2023-02-03T07:09:08.254Z,73.98
2023-02-03T07:11:35.696Z,72.05
2023-02-03T07:14:03.339Z,72.29
2023-02-03T07:16:31.439Z,71.93
2023-02-03T07:19:00.209Z,71.58
2023-02-03T07:21:27.638Z,69.36
2023-02-03T07:23:55.117Z,70.35
2023-02-03T07:26:26.556Z,70.18
2023-02-03T07:28:54.564Z,70.27
2023-02-03T07:31:22.741Z,71.04
2023-02-03T07:33:50.305Z,71.89
2023-02-03T07:36:17.683Z,71.92
2023-02-03T07:38:45.108Z,72.10
2023-02-03T07:41:12.651Z,71.71
2023-02-03T07:43:40.165Z,71.80
2023-02-03T07:46:07.701Z,69.72
2023-02-03T07:48:35.138Z,70.33
2023-02-03T07:51:02.536Z,68.42
2023-02-03T07:53:31.063Z,68.55
2023-02-03T07:56:03.589Z,68.62
2023-02-03T07:58:32.989Z,66.94
2023-02-03T08:01:00.769Z,66.91
2023-02-03T08:03:28.248Z,66.01
2023-02-03T08:05:55.703Z,65.54
2023-02-03T08:08:23.203Z,65.37
2023-02-03T08:10:50.647Z,64.47
2023-02-03T08:13:18.154Z,62.98
2023-02-03T08:15:45.743Z,62.78
2023-02-03T08:18:13.178Z,63.76
2023-02-03T08:20:40.918Z,61.89
2023-02-03T08:23:10.801Z,61.00
2023-02-03T08:25:40.103Z,61.83
2023-02-03T08:28:07.685Z,62.04
2023-02-03T08:30:35.284Z,59.65
2023-02-03T08:33:04.520Z,59.24
2023-02-03T08:35:33.209Z,57.40
2023-02-03T08:38:00.672Z,57.97
2023-02-03T08:40:28.593Z,58.40
2023-02-03T08:42:56.242Z,58.03
2023-02-03T08:45:23.936Z,57.66
2023-02-03T08:47:52.927Z,57.73
2023-02-03T08:50:23.403Z,57.53
2023-02-03T08:52:50.976Z,56.79
2023-02-03T08:55:18.462Z,54.54
2023-02-03T08:57:45.936Z,51.13
2023-02-03T09:00:14.389Z,52.89
2023-02-03T09:02:41.808Z,51.60
2023-02-03T09:05:09.991Z,50.38
2023-02-03T09:07:37.491Z,51.21
2023-02-03T09:10:05.357Z,50.54
2023-02-03T09:12:32.821Z,49.79
2023-02-03T09:15:00.227Z,52.91
2023-02-03T09:17:28.130Z,51.57
2023-02-03T09:19:55.710Z,52.54
2023-02-03T09:22:24.220Z,53.04
2023-02-03T09:24:52.041Z,53.86
2023-02-03T09:27:19.522Z,53.15
2023-02-03T09:29:48.057Z,54.64
2023-02-03T09:32:15.949Z,52.01
2023-02-03T09:34:45.900Z,51.89
2023-02-03T09:37:13.897Z,51.96
2023-02-03T09:39:42.419Z,51.64
2023-02-03T09:42:35.773Z,50.96
2023-02-03T09:45:25.816Z,49.58
2023-02-03T09:47:56.208Z,47.82
2023-02-03T09:50:29.194Z,48.50
2023-02-03T09:53:00.127Z,48.59
2023-02-03T09:55:49.064Z,49.36
2023-02-03T09:58:21.348Z,47.43
2023-02-03T10:01:03.534Z,46.88
2023-02-03T10:03:48.261Z,46.61
2023-02-03T10:06:41.419Z,47.01
2023-02-03T10:09:32.731Z,45.21
2023-02-03T10:12:42.840Z,46.75
2023-02-03T10:15:44.207Z,47.75
2023-02-03T10:18:24.584Z,47.72
2023-02-03T10:20:58.555Z,47.94
2023-02-03T10:23:32.264Z,48.80
2023-02-03T10:26:08.784Z,48.75
2023-02-03T10:28:52.923Z,48.43
2023-02-03T10:31:24.418Z,47.64
2023-02-03T10:34:12.418Z,45.89
2023-02-03T10:37:02.671Z,47.48
2023-02-03T10:39:51.773Z,46.38
2023-02-03T10:42:24.549Z,46.17
2023-02-03T10:45:00.540Z,45.30
2023-02-03T10:47:41.209Z,44.40
2023-02-03T10:50:19.161Z,46.33
2023-02-03T10:52:47.179Z,45.51
2023-02-03T10:55:26.583Z,45.81
2023-02-03T10:57:56.205Z,47.89
2023-02-03T11:00:32.296Z,45.80
2023-02-03T11:03:02.531Z,44.45
2023-02-03T11:05:30.115Z,46.76
2023-02-03T11:07:58.807Z,47.36
2023-02-03T11:10:30.343Z,46.57
2023-02-03T11:13:22.610Z,46.70
2023-02-03T11:16:20.868Z,46.13
2023-02-03T11:19:04.075Z,46.74
2023-02-03T11:21:48.782Z,45.42
2023-02-03T11:24:23.003Z,43.45
2023-02-03T11:27:06.949Z,43.81
2023-02-03T11:30:27.210Z,41.48
2023-02-03T11:32:55.068Z,42.15
2023-02-03T11:35:27.057Z,42.42
2023-02-03T11:37:58.104Z,42.46
2023-02-03T11:40:31.444Z,44.39
2023-02-03T11:43:23.616Z,45.80
2023-02-03T11:45:59.638Z,45.54
2023-02-03T11:49:25.747Z,45.49
2023-02-03T11:52:30.673Z,46.92
2023-02-03T12:10:56.234Z,44.43
2023-02-03T12:13:36.678Z,45.60
2023-02-03T12:16:38.483Z,45.39
2023-02-03T12:19:23.181Z,44.23
2023-02-03T12:22:26.644Z,42.12
2023-02-03T12:25:35.155Z,41.20
2023-02-03T12:28:33.329Z,40.39
2023-02-03T12:31:24.665Z,38.06
2023-02-03T12:34:01.735Z,38.50
2023-02-03T12:37:01.568Z,38.89
2023-02-03T12:39:49.789Z,38.54
2023-02-03T12:42:43.472Z,39.96
2023-02-03T12:45:27.138Z,36.95
2023-02-03T12:48:21.853Z,34.99
2023-02-03T12:50:59.618Z,36.58
2023-02-03T12:53:43.047Z,37.20
2023-02-03T12:56:18.659Z,38.94
2023-02-03T12:59:25.188Z,40.75
2023-02-03T13:02:24.314Z,39.82
2023-02-03T13:05:26.401Z,41.84
2023-02-03T13:08:16.884Z,42.49
2023-02-03T13:11:29.558Z,44.07
2023-02-03T13:14:21.260Z,44.18
2023-02-03T13:17:20.413Z,44.28
2023-02-03T13:19:56.609Z,45.48
2023-02-03T13:22:25.267Z,45.03
2023-02-03T13:25:28.797Z,43.68
2023-02-03T13:28:05.143Z,42.72
2023-02-03T13:30:46.773Z,43.63
2023-02-03T13:33:59.319Z,43.22
2023-02-03T13:37:03.833Z,43.97
2023-02-03T13:51:21.676Z,41.98
2023-02-03T13:53:52.126Z,42.74
2023-02-03T13:56:26.063Z,43.57
2023-02-03T13:59:05.482Z,42.53
2023-02-03T14:01:37.115Z,43.72
2023-02-03T14:04:09.093Z,43.34
2023-02-03T14:06:49.415Z,43.71
2023-02-03T14:09:33.965Z,44.46
2023-02-03T14:12:20.911Z,41.91
2023-02-03T14:14:51.359Z,36.60
2023-02-03T14:17:42.799Z,35.05
2023-02-03T14:20:28.562Z,34.39
2023-02-03T14:23:07.819Z,32.62
2023-02-03T14:25:51.198Z,32.85
2023-02-03T14:28:38.344Z,32.28
2023-02-03T14:31:12.806Z,33.76
2023-02-03T14:34:05.901Z,33.50
2023-02-03T14:36:49.408Z,33.93
2023-02-03T14:39:22.583Z,34.56
2023-02-03T14:42:02.406Z,32.87
2023-02-03T14:44:43.104Z,33.48
2023-02-03T14:47:36.302Z,33.98
2023-02-03T14:50:25.804Z,33.77
2023-02-03T14:53:13.838Z,34.88
2023-02-03T14:56:25.541Z,35.21
2023-02-03T14:59:03.233Z,34.93
2023-02-03T15:01:36.614Z,33.94
2023-02-03T15:04:23.155Z,35.27
2023-02-03T15:06:53.939Z,34.94
2023-02-03T15:09:43.203Z,35.54
2023-02-03T15:12:26.222Z,36.35
2023-02-03T15:14:54.750Z,37.22
2023-02-03T15:17:26.719Z,38.30
2023-02-03T15:19:55.385Z,37.81
2023-02-03T15:22:30.649Z,39.00
2023-02-03T15:25:04.842Z,39.58
2023-02-03T15:27:33.657Z,40.63
2023-02-03T15:30:16.769Z,41.23
2023-02-03T15:33:03.427Z,41.43
2023-02-03T15:35:35.342Z,41.92
2023-02-03T15:38:13.736Z,42.35
2023-02-03T15:40:59.541Z,41.77
2023-02-03T15:43:39.034Z,41.78
2023-02-03T15:46:25.564Z,42.56
2023-02-03T15:49:27.324Z,43.08
2023-02-03T15:52:24.112Z,42.40
2023-02-03T15:55:14.080Z,42.54
2023-02-03T15:57:48.672Z,43.16
2023-02-03T16:00:53.667Z,42.14
2023-02-03T16:03:49.431Z,42.28
2023-02-03T16:06:38.721Z,43.60
2023-02-03T16:09:28.855Z,43.66
2023-02-03T16:12:25.864Z,43.92
2023-02-03T16:14:56.409Z,44.28
2023-02-03T16:17:39.391Z,44.80
2023-02-03T16:20:12.440Z,45.09
2023-02-03T16:22:44.078Z,44.95
2023-02-03T16:25:40.665Z,45.75
2023-02-03T16:28:32.177Z,45.21
2023-02-03T16:31:20.203Z,46.18
2023-02-03T16:34:10.043Z,45.57
2023-02-03T16:37:02.295Z,46.55
2023-02-03T16:39:48.590Z,45.56
2023-02-03T16:42:41.487Z,45.90
2023-02-03T16:45:36.722Z,46.45
2023-02-03T16:48:44.799Z,46.11
2023-02-03T16:51:17.515Z,46.78
2023-02-03T16:53:48.341Z,46.97
2023-02-03T16:56:18.650Z,47.53
2023-02-03T16:59:06.029Z,47.18
2023-02-03T17:01:33.528Z,47.63
2023-02-03T17:04:01.047Z,47.36
2023-02-03T17:06:28.611Z,48.01
2023-02-03T17:08:57.894Z,48.00
2023-02-03T17:11:27.183Z,48.65
2023-02-03T17:13:54.873Z,48.44
2023-02-03T17:16:26.344Z,48.92
2023-02-03T17:18:54.191Z,49.50
2023-02-03T17:21:28.263Z,49.15
2023-02-03T17:23:57.712Z,48.94
2023-02-03T17:26:26.873Z,48.39
2023-02-03T17:28:56.558Z,50.22
2023-02-03T17:31:24.601Z,51.41
2023-02-03T17:33:53.118Z,51.84
2023-02-03T17:36:51.198Z,53.12
2023-02-03T17:53:40.307Z,50.04
2023-02-03T17:56:31.238Z,50.93
2023-02-03T17:59:03.881Z,51.25
2023-02-03T18:01:33.513Z,51.26
2023-02-03T18:04:10.450Z,52.21
2023-02-03T18:06:40.611Z,54.38
2023-02-03T18:09:14.025Z,53.28
2023-02-03T18:11:47.248Z,53.50
2023-02-03T18:14:35.499Z,53.70
2023-02-03T18:17:06.115Z,54.71
2023-02-03T18:19:37.460Z,53.99
2023-02-03T18:22:07.009Z,53.52
2023-02-03T18:24:34.791Z,53.15
2023-02-03T18:27:06.219Z,52.95
2023-02-03T18:29:37.961Z,53.08
2023-02-03T18:32:07.065Z,53.00
2023-02-03T18:34:35.640Z,52.93
2023-02-03T18:37:06.353Z,52.42
2023-02-03T18:39:36.694Z,51.78
2023-02-03T18:42:14.713Z,52.09
2023-02-03T18:44:44.196Z,51.57
2023-02-03T18:47:13.990Z,51.28
2023-02-03T18:49:46.273Z,51.41
2023-02-03T18:52:14.998Z,52.10
2023-02-03T18:54:46.696Z,50.88
2023-02-03T18:57:20.589Z,50.60
2023-02-03T18:59:48.577Z,50.43
2023-02-03T19:02:16.871Z,51.01
2023-02-03T19:04:47.564Z,51.13
2023-02-03T19:07:17.045Z,50.88
2023-02-03T19:09:45.956Z,51.50
2023-02-03T19:12:34.945Z,51.06
2023-02-03T19:15:03.711Z,52.05
2023-02-03T19:17:33.354Z,51.38
2023-02-03T19:20:06.489Z,51.46
2023-02-03T19:22:35.608Z,51.36
2023-02-03T19:25:06.757Z,51.20
2023-02-03T19:27:35.762Z,52.00
2023-02-03T19:30:05.094Z,51.30
2023-02-03T19:32:34.987Z,51.75
2023-02-03T19:35:03.667Z,51.88
2023-02-03T19:37:32.244Z,52.03
2023-02-03T19:39:59.773Z,53.87
2023-02-03T19:42:27.414Z,54.76
2023-02-03T19:44:58.307Z,52.99
2023-02-03T19:47:27.293Z,51.99
2023-02-03T19:49:54.880Z,53.05
2023-02-03T19:52:25.371Z,53.41
2023-02-03T19:54:55.721Z,53.42
2023-02-03T19:57:26.635Z,54.88
2023-02-03T20:00:00.790Z,54.78
2023-02-03T20:02:30.009Z,55.11
2023-02-03T20:04:58.038Z,56.55
2023-02-03T20:07:32.847Z,57.29
2023-02-03T20:10:02.397Z,57.90
2023-02-03T20:12:31.869Z,57.48
2023-02-03T20:15:12.391Z,55.52
2023-02-03T20:17:43.044Z,55.68
2023-02-03T20:20:11.436Z,58.40
2023-02-03T20:22:41.751Z,56.63
2023-02-03T20:25:12.772Z,56.68
2023-02-03T20:27:42.045Z,56.41
2023-02-03T20:30:12.201Z,57.46
2023-02-03T20:32:40.135Z,56.99
2023-02-03T20:35:08.797Z,56.67
2023-02-03T20:37:36.618Z,57.43
2023-02-03T20:40:16.229Z,58.45
2023-02-03T20:42:45.361Z,58.76
2023-02-03T20:45:24.516Z,59.77
2023-02-03T20:47:52.609Z,61.36
2023-02-03T20:50:31.570Z,63.01
2023-02-03T20:53:12.914Z,65.01
2023-02-03T20:55:41.025Z,64.79
2023-02-03T20:58:34.269Z,65.18
2023-02-03T21:01:03.893Z,65.22
2023-02-03T21:03:50.064Z,66.22
2023-02-03T21:06:24.395Z,66.72
2023-02-03T21:08:51.952Z,67.76
2023-02-03T21:11:26.656Z,67.84
2023-02-03T21:13:55.892Z,67.96
2023-02-03T21:16:36.166Z,67.49
2023-02-03T21:19:04.035Z,67.31
2023-02-03T21:21:38.276Z,67.00
2023-02-03T21:24:40.473Z,66.74
2023-02-03T21:27:28.686Z,66.20
2023-02-03T21:30:00.135Z,66.28
2023-02-03T21:32:41.291Z,65.30
2023-02-03T21:35:35.532Z,65.20
2023-02-03T21:38:26.372Z,65.88
2023-02-03T21:40:53.812Z,62.51
2023-02-03T21:43:24.676Z,63.09
2023-02-03T21:45:52.558Z,65.89
2023-02-03T21:48:32.584Z,70.85
2023-02-03T21:51:21.217Z,73.58
2023-02-03T21:54:04.002Z,74.28
2023-02-03T21:56:41.590Z,76.47
2023-02-03T21:59:38.560Z,76.81
2023-02-03T22:02:48.286Z,77.49
2023-02-03T22:05:17.230Z,78.85
2023-02-03T22:07:44.705Z,78.35
2023-02-03T22:10:12.643Z,76.84
2023-02-03T22:12:40.107Z,77.79
2023-02-03T22:15:08.235Z,78.29
2023-02-03T22:17:35.739Z,76.39
2023-02-03T22:20:04.645Z,76.84
2023-02-03T22:22:32.142Z,76.92
2023-02-03T22:24:59.571Z,77.64
2023-02-03T22:27:27.225Z,78.03
2023-02-03T22:29:56.514Z,77.96
2023-02-03T22:32:24.044Z,77.55
2023-02-03T22:34:51.472Z,77.27
2023-02-03T22:37:18.918Z,75.75
2023-02-03T22:39:46.476Z,75.21
2023-02-03T22:42:16.109Z,77.02
2023-02-03T22:44:43.592Z,77.07
2023-02-03T22:47:11.718Z,77.24
2023-02-03T22:49:39.316Z,75.76
2023-02-03T22:52:07.195Z,75.33
2023-02-03T22:54:36.837Z,75.45
2023-02-03T22:57:04.346Z,74.81
2023-02-03T22:59:31.800Z,74.79
2023-02-03T23:01:59.268Z,74.18
2023-02-03T23:04:28.433Z,74.31
2023-02-03T23:06:55.953Z,73.17
2023-02-03T23:09:23.447Z,73.28
2023-02-03T23:11:50.911Z,74.26
2023-02-03T23:14:18.388Z,74.25
2023-02-03T23:16:46.018Z,74.12
2023-02-03T23:19:13.532Z,75.91
2023-02-03T23:21:42.809Z,76.41
2023-02-03T23:24:10.298Z,75.83
2023-02-03T23:26:41.627Z,74.89
2023-02-03T23:29:09.279Z,74.45
2023-02-03T23:31:37.380Z,74.72
2023-02-03T23:34:23.726Z,74.61
2023-02-03T23:36:54.301Z,73.79
2023-02-03T23:39:22.022Z,74.16
2023-02-03T23:41:49.671Z,74.64
2023-02-03T23:44:17.157Z,75.36
2023-02-03T23:46:44.731Z,73.76
2023-02-03T23:49:12.166Z,73.28
2023-02-03T23:51:39.567Z,74.02
2023-02-03T23:54:06.988Z,74.31
2023-02-03T23:56:34.446Z,74.99
2023-02-03T23:59:01.985Z,75.07
